createdAt,value
2022-08-18T00:01:25.288Z,12.90
2022-08-18T00:03:56.432Z,13.15
2022-08-18T00:06:30.923Z,12.07
2022-08-18T00:09:01.649Z,10.98
2022-08-18T00:11:41.082Z,11.45
2022-08-18T00:14:22.660Z,12.20
2022-08-18T00:16:54.935Z,12.60
2022-08-18T00:19:45.582Z,12.40
2022-08-18T00:22:16.106Z,12.77
2022-08-18T00:24:49.402Z,13.98
2022-08-18T00:27:28.254Z,13.48
2022-08-18T00:30:00.698Z,12.38
2022-08-18T00:32:37.611Z,13.27
2022-08-18T00:35:13.732Z,13.85
2022-08-18T00:37:42.945Z,13.57
2022-08-18T00:40:22.245Z,13.13
2022-08-18T00:42:55.576Z,12.05
2022-08-18T00:45:33.063Z,12.93
2022-08-18T00:48:00.926Z,12.88
2022-08-18T00:50:53.643Z,12.23
2022-08-18T00:53:50.504Z,11.23
2022-08-18T00:56:30.594Z,12.70
2022-08-18T00:59:26.700Z,12.00
2022-08-18T01:02:02.974Z,13.20
2022-08-18T01:04:53.533Z,11.23
2022-08-18T01:07:30.301Z,11.35
2022-08-18T01:10:01.510Z,11.95
2022-08-18T01:12:44.877Z,10.75
2022-08-18T01:15:29.621Z,10.38
2022-08-18T01:18:29.216Z,11.27
2022-08-18T01:21:43.927Z,12.30
2022-08-18T01:24:14.177Z,12.80
2022-08-18T01:26:50.624Z,13.75
2022-08-18T01:29:20.118Z,15.73
2022-08-18T01:31:55.539Z,14.38
2022-08-18T01:34:27.655Z,13.77
2022-08-18T01:36:56.201Z,15.30
2022-08-18T01:41:11.212Z,15.43
2022-08-18T01:42:16.930Z,15.63
2022-08-18T01:44:46.236Z,15.43
2022-08-18T01:47:14.216Z,14.25
2022-08-18T01:49:43.275Z,13.70
2022-08-18T01:52:16.058Z,11.70
2022-08-18T01:54:43.404Z,12.90
2022-08-18T01:57:13.526Z,14.60
2022-08-18T01:59:42.825Z,17.23
2022-08-18T02:02:22.636Z,16.92
2022-08-18T02:05:02.022Z,16.40
2022-08-18T02:07:36.081Z,14.05
2022-08-18T02:10:12.155Z,15.80
2022-08-18T02:12:41.792Z,15.18
2022-08-18T02:15:11.925Z,15.90
2022-08-18T02:17:41.830Z,15.93
2022-08-18T02:20:15.220Z,16.30
2022-08-18T02:22:43.786Z,16.10
2022-08-18T02:25:12.795Z,15.18
2022-08-18T02:27:40.416Z,14.40
2022-08-18T02:30:13.049Z,13.02
2022-08-18T02:32:41.133Z,11.23
2022-08-18T02:35:11.965Z,11.30
2022-08-18T02:37:42.207Z,9.65
2022-08-18T02:40:15.447Z,10.45
2022-08-18T02:42:44.666Z,15.25
2022-08-18T02:45:13.626Z,14.40
2022-08-18T02:47:49.205Z,14.00
2022-08-18T02:50:16.877Z,12.98
2022-08-18T02:52:44.158Z,13.30
2022-08-18T02:55:12.460Z,11.25
2022-08-18T02:57:47.835Z,12.85
2022-08-18T03:00:18.980Z,10.85
2022-08-18T03:02:51.540Z,12.38
2022-08-18T03:05:20.299Z,12.10
2022-08-18T03:07:47.856Z,12.60
2022-08-18T03:10:33.069Z,14.50
2022-08-18T03:13:02.364Z,15.98
2022-08-18T03:15:29.835Z,15.52
2022-08-18T03:17:58.340Z,14.27
2022-08-18T03:20:30.718Z,15.02
2022-08-18T03:22:59.764Z,15.32
2022-08-18T03:25:33.580Z,12.60
2022-08-18T03:28:03.866Z,12.82
2022-08-18T03:30:31.114Z,17.13
2022-08-18T03:32:58.530Z,16.38
2022-08-18T03:35:25.962Z,16.48
2022-08-18T03:37:53.822Z,16.40
2022-08-18T03:40:21.414Z,14.95
2022-08-18T03:42:48.647Z,14.20
2022-08-18T03:45:17.989Z,13.68
2022-08-18T03:47:46.242Z,12.75
2022-08-18T03:50:14.210Z,13.15
2022-08-18T03:52:41.948Z,10.85
2022-08-18T03:55:09.902Z,13.07
2022-08-18T03:57:38.897Z,15.23
2022-08-18T04:00:09.750Z,13.93
2022-08-18T04:02:37.207Z,15.52
2022-08-18T04:05:05.606Z,16.08
2022-08-18T04:07:33.027Z,13.32
2022-08-18T04:10:00.557Z,15.27
2022-08-18T04:12:27.964Z,14.60
2022-08-18T04:14:55.161Z,14.63
2022-08-18T04:17:25.698Z,14.32
2022-08-18T04:19:55.164Z,12.10
2022-08-18T04:22:23.685Z,12.93
2022-08-18T04:24:51.283Z,12.85
2022-08-18T04:27:21.248Z,15.15
2022-08-18T04:29:49.129Z,15.73
2022-08-18T04:32:16.617Z,16.40
2022-08-18T04:34:44.522Z,15.85
2022-08-18T04:37:12.085Z,16.95
2022-08-18T04:39:39.793Z,15.90
2022-08-18T04:42:07.772Z,15.60
2022-08-18T04:44:38.091Z,15.30
2022-08-18T04:47:09.214Z,17.48
2022-08-18T04:49:37.675Z,16.45
2022-08-18T04:52:40.192Z,16.13
2022-08-18T04:55:10.973Z,16.08
2022-08-18T04:57:39.476Z,18.85
2022-08-18T05:00:08.773Z,17.40
2022-08-18T05:02:36.332Z,15.38
2022-08-18T05:05:05.190Z,14.50
2022-08-18T05:07:33.052Z,15.50
2022-08-18T05:10:00.509Z,16.48
2022-08-18T05:12:28.454Z,15.32
2022-08-18T05:14:58.981Z,13.85
2022-08-18T05:17:30.566Z,12.80
2022-08-18T05:20:01.734Z,15.00
2022-08-18T05:22:31.785Z,14.68
2022-08-18T05:25:00.575Z,14.82
2022-08-18T05:27:36.095Z,15.77
2022-08-18T05:30:07.532Z,15.02
2022-08-18T05:32:50.005Z,13.32
2022-08-18T05:35:31.198Z,15.40
2022-08-18T05:38:33.166Z,16.70
2022-08-18T05:41:25.913Z,15.68
2022-08-18T05:43:53.326Z,16.88
2022-08-18T05:46:52.615Z,15.95
2022-08-18T05:49:21.328Z,17.33
2022-08-18T05:51:57.095Z,18.17
2022-08-18T05:54:46.245Z,16.42
2022-08-18T05:57:21.861Z,16.98
2022-08-18T05:59:54.042Z,18.05
2022-08-18T06:02:33.910Z,15.50
2022-08-18T06:05:11.807Z,16.40
2022-08-18T06:07:55.558Z,17.50
2022-08-18T06:10:23.656Z,17.20
2022-08-18T06:12:58.907Z,15.43
2022-08-18T06:15:49.044Z,15.40
2022-08-18T06:18:43.194Z,14.45
2022-08-18T06:21:42.740Z,16.52
2022-08-18T06:24:25.564Z,15.38
2022-08-18T06:27:10.823Z,15.50
2022-08-18T06:30:18.686Z,14.93
2022-08-18T06:33:32.591Z,13.05
2022-08-18T06:36:34.285Z,14.30
2022-08-18T06:39:26.912Z,14.52
2022-08-18T06:41:55.370Z,14.25
2022-08-18T06:44:50.625Z,13.63
2022-08-18T06:47:29.876Z,13.77
2022-08-18T06:50:23.205Z,13.15
2022-08-18T06:53:07.587Z,12.63
2022-08-18T06:55:55.725Z,11.88
2022-08-18T06:58:30.785Z,12.32
2022-08-18T07:01:07.193Z,11.07
2022-08-18T07:03:37.962Z,11.70
2022-08-18T07:06:08.928Z,11.85
2022-08-18T07:08:41.452Z,12.27
2022-08-18T07:11:30.068Z,12.25
2022-08-18T07:14:16.367Z,12.00
2022-08-18T07:16:58.307Z,11.43
2022-08-18T07:19:30.732Z,10.95
2022-08-18T07:22:18.062Z,12.30
2022-08-18T07:24:51.682Z,11.00
2022-08-18T07:27:49.422Z,11.90
2022-08-18T07:30:37.059Z,11.23
2022-08-18T07:33:22.669Z,10.57
2022-08-18T07:36:03.368Z,11.60
2022-08-18T07:38:43.992Z,11.20
2022-08-18T07:41:28.085Z,10.77
2022-08-18T07:44:23.908Z,10.45
2022-08-18T07:47:07.035Z,10.05
2022-08-18T07:49:37.071Z,10.23
2022-08-18T07:52:36.185Z,9.45
2022-08-18T07:55:35.790Z,9.80
2022-08-18T07:58:36.629Z,9.55
2022-08-18T08:01:25.979Z,9.45
2022-08-18T08:04:24.980Z,9.75
2022-08-18T08:07:24.876Z,9.13
2022-08-18T08:10:22.610Z,9.02
2022-08-18T08:13:51.775Z,9.55
2022-08-18T08:16:40.761Z,9.30
2022-08-18T08:19:59.560Z,9.02
2022-08-18T08:22:59.691Z,8.57
2022-08-18T08:26:24.750Z,9.55
2022-08-18T08:29:14.021Z,8.75
2022-08-18T08:32:01.779Z,8.90
2022-08-18T08:34:50.559Z,8.90
2022-08-18T08:38:04.827Z,8.20
2022-08-18T08:41:00.620Z,8.77
2022-08-18T08:43:40.038Z,8.80
2022-08-18T08:46:23.781Z,9.18
2022-08-18T08:49:01.462Z,7.90
2022-08-18T08:51:46.606Z,8.05
2022-08-18T08:54:29.777Z,7.55
2022-08-18T08:57:01.860Z,7.07
2022-08-18T08:59:29.155Z,7.65
2022-08-18T09:02:49.402Z,7.65
2022-08-18T09:05:28.880Z,7.78
2022-08-18T09:08:24.771Z,8.10
2022-08-18T09:10:55.210Z,6.78
2022-08-18T09:13:29.258Z,7.70
2022-08-18T09:16:24.316Z,6.57
2022-08-18T09:19:41.075Z,7.18
2022-08-18T09:22:36.711Z,6.63
2022-08-18T09:25:29.434Z,5.78
2022-08-18T09:28:20.395Z,5.78
2022-08-18T09:31:03.207Z,6.15
2022-08-18T09:33:48.535Z,5.70
2022-08-18T09:36:41.004Z,5.97
2022-08-18T09:43:12.116Z,5.03
2022-08-18T09:46:00.990Z,4.57
2022-08-18T09:48:36.983Z,5.18
2022-08-18T09:51:17.496Z,4.65
2022-08-18T09:53:53.971Z,4.38
2022-08-18T09:56:54.234Z,4.40
2022-08-18T09:59:35.040Z,4.57
2022-08-18T10:02:32.161Z,5.05
2022-08-18T10:05:17.584Z,4.68
2022-08-18T10:08:06.192Z,4.20
2022-08-18T10:11:09.277Z,4.90
2022-08-18T10:13:49.871Z,4.07
2022-08-18T10:17:24.727Z,4.25
2022-08-18T10:20:25.928Z,3.85
2022-08-18T10:22:57.383Z,4.25
2022-08-18T10:25:52.957Z,4.85
2022-08-18T10:28:54.785Z,4.63
2022-08-18T10:31:24.142Z,4.45
2022-08-18T10:34:24.688Z,4.95
2022-08-18T10:37:01.003Z,5.28
2022-08-18T10:39:47.151Z,5.05
2022-08-18T10:42:30.856Z,5.50
2022-08-18T10:45:30.195Z,5.15
2022-08-18T10:48:26.698Z,5.45
2022-08-18T10:51:27.468Z,5.20
2022-08-18T10:54:13.072Z,5.72
2022-08-18T10:56:57.607Z,5.22
2022-08-18T10:59:48.968Z,4.85
2022-08-18T11:05:43.052Z,5.35
2022-08-18T11:08:20.282Z,4.70
2022-08-18T11:11:27.744Z,5.20
2022-08-18T11:14:25.384Z,5.78
2022-08-18T11:17:08.447Z,5.65
2022-08-18T11:19:42.031Z,5.80
2022-08-18T11:22:35.696Z,6.22
2022-08-18T11:25:25.109Z,6.13
2022-08-18T11:27:56.523Z,6.88
2022-08-18T11:30:35.339Z,5.80
2022-08-18T11:33:05.872Z,6.35
2022-08-18T11:35:51.913Z,6.30
2022-08-18T11:38:22.287Z,6.55
2022-08-18T11:41:11.655Z,5.80
2022-08-18T11:43:43.229Z,7.90
2022-08-18T11:46:29.747Z,6.88
2022-08-18T11:49:01.765Z,7.15
2022-08-18T11:51:33.960Z,6.50
2022-08-18T11:54:15.510Z,6.63
2022-08-18T11:56:44.413Z,6.50
2022-08-18T11:59:53.030Z,6.63
2022-08-18T12:02:20.255Z,6.47
2022-08-18T12:04:53.940Z,6.88
2022-08-18T12:07:57.315Z,6.90
2022-08-18T12:10:29.264Z,6.88
2022-08-18T12:13:00.644Z,7.28
2022-08-18T12:15:44.434Z,6.40
2022-08-18T12:21:06.354Z,6.70
2022-08-18T12:26:38.001Z,6.40
2022-08-18T12:29:08.799Z,6.75
2022-08-18T12:31:42.619Z,5.88
2022-08-18T12:34:24.894Z,6.80
2022-08-18T12:37:01.250Z,6.22
2022-08-18T12:39:31.255Z,6.00
2022-08-18T12:41:59.816Z,6.32
2022-08-18T12:44:27.672Z,5.88
2022-08-18T12:46:56.087Z,6.80
2022-08-18T12:49:25.838Z,6.10
2022-08-18T12:51:55.784Z,6.03
2022-08-18T12:54:23.401Z,6.20
2022-08-18T12:56:58.914Z,6.47
2022-08-18T12:59:32.486Z,6.75
2022-08-18T13:02:08.040Z,6.57
2022-08-18T13:04:36.746Z,6.63
2022-08-18T13:07:05.969Z,6.55
2022-08-18T13:09:52.495Z,6.22
2022-08-18T13:12:24.084Z,6.90
2022-08-18T13:14:55.232Z,6.50
2022-08-18T13:17:32.861Z,6.05
2022-08-18T13:20:09.407Z,6.30
2022-08-18T13:22:40.311Z,5.65
2022-08-18T13:25:12.936Z,6.15
2022-08-18T13:27:59.786Z,5.80
2022-08-18T13:30:32.389Z,6.35
2022-08-18T13:33:05.426Z,6.75
2022-08-18T13:35:54.157Z,6.10
2022-08-18T13:38:25.968Z,6.40
2022-08-18T13:40:59.485Z,6.00
2022-08-18T13:43:34.521Z,7.22
2022-08-18T13:46:04.058Z,6.68
2022-08-18T13:48:32.426Z,6.28
2022-08-18T13:51:01.925Z,6.55
2022-08-18T13:53:31.954Z,5.97
2022-08-18T13:55:59.761Z,7.50
2022-08-18T13:58:29.289Z,7.07
2022-08-18T14:03:54.503Z,7.07
2022-08-18T14:06:23.663Z,7.18
2022-08-18T14:08:53.661Z,7.40
2022-08-18T14:11:32.993Z,7.30
2022-08-18T14:14:02.203Z,7.05
2022-08-18T14:16:30.818Z,6.93
2022-08-18T14:19:17.751Z,7.38
2022-08-18T14:22:11.619Z,7.75
2022-08-18T14:25:00.655Z,7.03
2022-08-18T14:27:35.192Z,7.20
2022-08-18T14:30:11.450Z,7.10
2022-08-18T14:32:59.933Z,6.97
2022-08-18T14:36:04.175Z,7.50
2022-08-18T14:38:16.167Z,7.53
2022-08-18T14:40:45.571Z,7.03
2022-08-18T14:43:15.797Z,7.00
2022-08-18T14:45:48.756Z,7.00
2022-08-18T14:48:27.486Z,7.43
2022-08-18T14:50:59.721Z,7.63
2022-08-18T14:53:34.431Z,6.88
2022-08-18T14:56:02.495Z,7.63
2022-08-18T14:58:33.011Z,7.20
2022-08-18T15:01:10.372Z,7.65
2022-08-18T15:03:39.393Z,6.93
2022-08-18T15:06:08.673Z,8.07
2022-08-18T15:08:47.058Z,7.28
2022-08-18T15:11:14.672Z,9.93
2022-08-18T15:13:45.427Z,8.40
2022-08-18T15:16:16.300Z,7.03
2022-08-18T15:18:46.344Z,6.97
2022-08-18T15:21:35.374Z,7.18
2022-08-18T15:24:26.778Z,7.05
2022-08-18T15:27:03.291Z,7.85
2022-08-18T15:29:34.670Z,7.18
2022-08-18T15:32:06.149Z,6.75
2022-08-18T15:34:46.143Z,7.47
2022-08-18T15:37:19.322Z,7.05
2022-08-18T15:39:51.829Z,7.30
2022-08-18T15:42:24.008Z,7.10
2022-08-18T15:44:53.690Z,7.25
2022-08-18T15:47:25.111Z,7.15
2022-08-18T15:49:54.682Z,7.18
2022-08-18T15:52:25.993Z,7.35
2022-08-18T15:54:58.297Z,6.75
2022-08-18T15:57:38.965Z,6.95
2022-08-18T16:00:12.099Z,7.47
2022-08-18T16:02:48.550Z,6.75
2022-08-18T16:05:22.842Z,8.10
2022-08-18T16:07:56.356Z,7.07
2022-08-18T16:10:28.985Z,7.20
2022-08-18T16:12:56.960Z,7.20
2022-08-18T16:15:26.370Z,6.40
2022-08-18T16:17:55.573Z,6.55
2022-08-18T16:20:24.148Z,6.60
2022-08-18T16:22:53.460Z,6.68
2022-08-18T16:25:21.763Z,7.00
2022-08-18T16:27:49.122Z,6.90
2022-08-18T16:30:23.792Z,6.90
2022-08-18T16:32:52.371Z,5.88
2022-08-18T16:35:21.578Z,6.45
2022-08-18T16:37:49.807Z,6.05
2022-08-18T16:40:19.255Z,5.38
2022-08-18T16:42:48.044Z,6.72
2022-08-18T16:45:21.989Z,7.28
2022-08-18T16:47:49.445Z,6.75
2022-08-18T16:50:20.429Z,6.55
2022-08-18T16:52:48.106Z,6.07
2022-08-18T16:55:15.373Z,5.80
2022-08-18T16:58:03.479Z,6.22
2022-08-18T17:00:55.006Z,6.47
2022-08-18T17:03:42.972Z,6.63
2022-08-18T17:06:15.548Z,6.40
2022-08-18T17:08:44.859Z,6.82
2022-08-18T17:11:17.627Z,6.38
2022-08-18T17:13:48.003Z,6.40
2022-08-18T17:16:17.968Z,6.15
2022-08-18T17:18:46.212Z,6.70
2022-08-18T17:21:20.133Z,6.78
2022-08-18T17:23:48.599Z,6.50
2022-08-18T17:27:25.548Z,6.88
2022-08-18T17:30:00.629Z,6.70
2022-08-18T17:32:48.809Z,6.95
2022-08-18T17:35:34.657Z,6.30
2022-08-18T17:38:15.220Z,6.80
2022-08-18T17:40:53.082Z,6.72
2022-08-18T17:43:29.131Z,7.47
2022-08-18T17:46:05.388Z,7.03
2022-08-18T17:48:44.477Z,6.03
2022-08-18T17:51:34.957Z,6.90
2022-08-18T17:54:23.481Z,6.60
2022-08-18T17:57:08.676Z,7.85
2022-08-18T17:59:54.902Z,8.02
2022-08-18T18:02:30.705Z,7.40
2022-08-18T18:05:05.550Z,7.95
2022-08-18T18:07:50.140Z,7.35
2022-08-18T18:11:02.187Z,7.55
2022-08-18T18:13:32.736Z,7.57
2022-08-18T18:16:35.557Z,7.55
2022-08-18T18:19:12.566Z,7.53
2022-08-18T18:21:53.383Z,6.75
2022-08-18T18:24:34.711Z,7.35
2022-08-18T18:27:10.545Z,7.60
2022-08-18T18:29:39.967Z,8.57
2022-08-18T18:32:38.918Z,7.93
2022-08-18T18:35:49.992Z,7.50
2022-08-18T18:38:36.604Z,8.15
2022-08-18T18:41:28.187Z,7.65
2022-08-18T18:44:12.336Z,8.07
2022-08-18T18:47:12.128Z,8.73
2022-08-18T18:49:58.559Z,9.10
2022-08-18T18:52:32.680Z,8.48
2022-08-18T18:55:14.872Z,8.40
2022-08-18T18:58:03.541Z,8.70
2022-08-18T19:00:54.128Z,9.35
2022-08-18T19:03:53.233Z,9.30
2022-08-18T19:06:41.251Z,8.68
2022-08-18T19:09:50.299Z,9.25
2022-08-18T19:12:29.804Z,8.65
2022-08-18T19:15:16.364Z,9.05
2022-08-18T19:18:03.369Z,9.18
2022-08-18T19:20:42.495Z,9.20
2022-08-18T19:23:50.187Z,8.30
2022-08-18T19:26:28.429Z,8.43
2022-08-18T19:29:13.434Z,6.93
2022-08-18T19:31:54.489Z,8.75
2022-08-18T19:34:31.093Z,8.02
2022-08-18T19:37:18.271Z,8.25
2022-08-18T19:40:36.748Z,8.32
2022-08-18T19:43:40.565Z,8.43
2022-08-18T19:46:52.714Z,7.80
2022-08-18T19:49:36.052Z,8.15
2022-08-18T19:52:46.281Z,8.38
2022-08-18T19:55:35.600Z,8.30
2022-08-18T19:58:49.185Z,7.85
2022-08-18T20:01:53.080Z,7.65
2022-08-18T20:04:53.283Z,7.20
2022-08-18T20:07:55.616Z,7.75
2022-08-18T20:10:53.168Z,7.70
2022-08-18T20:13:32.531Z,7.75
2022-08-18T20:16:25.114Z,7.50
2022-08-18T20:19:44.547Z,7.90
2022-08-18T20:22:24.320Z,7.45
2022-08-18T20:25:33.537Z,6.93
2022-08-18T20:28:00.795Z,7.50
2022-08-18T20:30:58.541Z,6.22
2022-08-18T20:33:26.114Z,7.35
2022-08-18T20:36:27.381Z,7.05
2022-08-18T20:38:59.644Z,6.95
2022-08-18T20:41:40.953Z,7.25
2022-08-18T20:44:29.207Z,7.38
2022-08-18T20:47:36.957Z,6.88
2022-08-18T20:51:03.504Z,6.90
2022-08-18T20:54:04.559Z,7.35
2022-08-18T20:56:48.546Z,6.85
2022-08-18T20:59:32.570Z,7.05
2022-08-18T21:02:26.488Z,7.45
2022-08-18T21:05:00.262Z,7.00
2022-08-18T21:07:38.018Z,7.43
2022-08-18T21:10:25.494Z,7.15
2022-08-18T21:12:57.921Z,7.10
2022-08-18T21:15:38.221Z,7.30
2022-08-18T21:18:23.806Z,7.15
2022-08-18T21:20:56.382Z,7.07
2022-08-18T21:23:40.579Z,7.40
2022-08-18T21:26:16.313Z,7.03
2022-08-18T21:28:49.707Z,7.30
2022-08-18T21:31:44.185Z,7.20
2022-08-18T21:34:41.736Z,7.03
2022-08-18T21:37:16.155Z,7.45
2022-08-18T21:39:54.461Z,7.43
2022-08-18T21:42:37.225Z,7.45
2022-08-18T21:45:05.288Z,7.97
2022-08-18T21:47:35.729Z,7.85
2022-08-18T21:50:17.231Z,7.57
2022-08-18T21:53:16.102Z,7.43
2022-08-18T21:55:50.191Z,7.55
2022-08-18T21:58:34.016Z,7.70
2022-08-18T22:01:23.583Z,8.45
2022-08-18T22:03:55.145Z,7.70
2022-08-18T22:06:31.128Z,7.85
2022-08-18T22:09:24.174Z,7.75
2022-08-18T22:12:53.690Z,7.43
2022-08-18T22:15:23.761Z,8.15
2022-08-18T22:17:59.816Z,8.18
2022-08-18T22:20:46.921Z,7.95
2022-08-18T22:23:32.604Z,8.30
2022-08-18T22:26:22.485Z,8.20
2022-08-18T22:29:34.987Z,7.72
2022-08-18T22:32:04.177Z,7.43
2022-08-18T22:34:34.475Z,7.80
2022-08-18T22:37:15.485Z,7.82
2022-08-18T22:39:54.789Z,8.38
2022-08-18T22:42:27.184Z,8.65
2022-08-18T22:44:59.078Z,8.43
2022-08-18T22:47:30.275Z,8.65
2022-08-18T22:50:01.859Z,8.50
2022-08-18T22:52:44.222Z,8.77
2022-08-18T22:55:20.860Z,8.75
2022-08-18T22:57:54.348Z,9.10
2022-08-18T23:00:25.225Z,8.55
2022-08-18T23:02:54.988Z,7.78
2022-08-18T23:05:23.360Z,9.43
2022-08-18T23:07:51.176Z,8.57
2022-08-18T23:10:19.287Z,8.27
2022-08-18T23:12:48.819Z,8.95
2022-08-18T23:15:19.186Z,8.73
2022-08-18T23:17:46.579Z,9.07
2022-08-18T23:20:20.266Z,8.73
2022-08-18T23:22:54.003Z,9.25
2022-08-18T23:25:21.247Z,8.50
2022-08-18T23:27:48.514Z,9.48
2022-08-18T23:30:15.980Z,8.45
2022-08-18T23:32:43.762Z,8.77
2022-08-18T23:35:11.138Z,9.10
2022-08-18T23:37:40.029Z,9.25
2022-08-18T23:40:15.771Z,9.63
2022-08-18T23:42:43.354Z,9.65
2022-08-18T23:45:11.342Z,9.43
2022-08-18T23:47:38.660Z,9.00
2022-08-18T23:50:07.003Z,8.68
2022-08-18T23:52:34.217Z,8.93
2022-08-18T23:55:14.473Z,9.50
2022-08-18T23:57:42.041Z,9.05
